createdAt,value
2022-08-16T00:01:40.708Z,100.00
2022-08-16T00:04:07.893Z,100.00
2022-08-16T00:06:39.464Z,100.00
2022-08-16T00:09:06.878Z,100.00
2022-08-16T00:11:33.776Z,100.00
2022-08-16T00:14:00.706Z,100.00
2022-08-16T00:17:05.504Z,100.00
2022-08-16T00:19:22.500Z,100.00
2022-08-16T00:21:53.392Z,100.00
2022-08-16T00:24:32.760Z,100.00
2022-08-16T00:27:01.360Z,100.00
2022-08-16T00:29:29.814Z,100.00
2022-08-16T00:32:01.263Z,100.00
2022-08-16T00:34:43.196Z,100.00
2022-08-16T00:37:20.886Z,100.00
2022-08-16T00:39:58.465Z,100.00
2022-08-16T00:42:32.069Z,100.00
2022-08-16T00:45:08.079Z,100.00
2022-08-16T00:47:39.240Z,100.00
2022-08-16T00:50:11.600Z,100.00
2022-08-16T00:52:50.122Z,100.00
2022-08-16T00:55:22.439Z,100.00
2022-08-16T00:57:59.274Z,100.00
2022-08-16T01:00:28.919Z,100.00
2022-08-16T01:02:57.812Z,100.00
2022-08-16T01:05:25.632Z,100.00
2022-08-16T01:07:53.823Z,100.00
2022-08-16T01:10:32.828Z,100.00
2022-08-16T01:13:15.218Z,100.00
2022-08-16T01:15:52.570Z,100.00
2022-08-16T01:18:39.401Z,100.00
2022-08-16T01:21:39.766Z,100.00
2022-08-16T01:24:53.525Z,100.00
2022-08-16T01:27:20.911Z,100.00
2022-08-16T01:30:20.669Z,100.00
2022-08-16T01:33:02.190Z,100.00
2022-08-16T01:35:41.076Z,100.00
2022-08-16T01:38:49.041Z,100.00
2022-08-16T01:41:26.370Z,100.00
2022-08-16T01:44:00.943Z,100.00
2022-08-16T01:46:41.743Z,100.00
2022-08-16T01:49:11.456Z,100.00
2022-08-16T01:51:41.576Z,100.00
2022-08-16T01:54:10.557Z,100.00
2022-08-16T01:56:40.968Z,100.00
2022-08-16T01:59:15.405Z,100.00
2022-08-16T02:01:43.247Z,100.00
2022-08-16T02:04:10.707Z,100.00
2022-08-16T02:06:46.830Z,100.00
2022-08-16T02:09:14.927Z,100.00
2022-08-16T02:11:53.264Z,100.00
2022-08-16T02:14:26.217Z,100.00
2022-08-16T02:16:53.956Z,100.00
2022-08-16T02:19:21.344Z,100.00
2022-08-16T02:22:08.319Z,100.00
2022-08-16T02:24:42.307Z,100.00
2022-08-16T02:27:12.452Z,100.00
2022-08-16T02:29:41.280Z,100.00
2022-08-16T02:32:49.267Z,100.00
2022-08-16T02:34:58.398Z,100.00
2022-08-16T02:37:39.837Z,100.00
2022-08-16T02:40:13.281Z,100.00
2022-08-16T02:42:49.626Z,100.00
2022-08-16T02:45:17.857Z,100.00
2022-08-16T02:48:00.331Z,100.00
2022-08-16T02:50:55.563Z,100.00
2022-08-16T02:53:18.072Z,100.00
2022-08-16T02:55:45.372Z,100.00
2022-08-16T02:58:17.647Z,100.00
2022-08-16T03:00:45.494Z,100.00
2022-08-16T03:03:17.966Z,100.00
2022-08-16T03:05:50.027Z,100.00
2022-08-16T03:08:49.693Z,100.00
2022-08-16T03:11:06.638Z,100.00
2022-08-16T03:13:44.123Z,100.00
2022-08-16T03:16:38.834Z,100.00
2022-08-16T03:19:01.637Z,100.00
2022-08-16T03:21:29.422Z,100.00
2022-08-16T03:24:29.445Z,100.00
2022-08-16T03:26:53.225Z,100.00
2022-08-16T03:29:19.852Z,100.00
2022-08-16T03:31:46.911Z,100.00
2022-08-16T03:34:19.411Z,100.00
2022-08-16T03:36:47.440Z,100.00
2022-08-16T03:39:15.052Z,100.00
2022-08-16T03:41:50.333Z,100.00
2022-08-16T03:44:40.758Z,100.00
2022-08-16T03:47:10.319Z,100.00
2022-08-16T03:49:37.705Z,100.00
2022-08-16T03:52:05.770Z,100.00
2022-08-16T03:54:32.427Z,100.00
2022-08-16T03:57:02.859Z,100.00
2022-08-16T03:59:32.406Z,100.00
2022-08-16T04:02:01.648Z,100.00
2022-08-16T04:04:33.615Z,100.00
2022-08-16T04:07:05.838Z,100.00
2022-08-16T04:09:37.845Z,100.00
2022-08-16T04:12:10.587Z,100.00
2022-08-16T04:14:46.638Z,100.00
2022-08-16T04:17:15.727Z,100.00
2022-08-16T04:19:45.605Z,100.00
2022-08-16T04:22:13.937Z,100.00
2022-08-16T04:24:54.126Z,100.00
2022-08-16T04:27:21.994Z,100.00
2022-08-16T04:29:52.256Z,100.00
2022-08-16T04:32:19.837Z,100.00
2022-08-16T04:34:47.186Z,100.00
2022-08-16T04:37:16.067Z,99.10
2022-08-16T04:39:46.529Z,99.08
2022-08-16T04:42:17.773Z,99.39
2022-08-16T04:44:53.458Z,98.43
2022-08-16T04:47:24.453Z,97.21
2022-08-16T04:49:52.692Z,95.71
2022-08-16T04:52:33.917Z,94.13
2022-08-16T04:55:37.929Z,94.76
2022-08-16T04:58:45.296Z,93.35
2022-08-16T05:00:54.279Z,93.02
2022-08-16T05:03:21.642Z,94.82
2022-08-16T05:05:59.396Z,94.99
2022-08-16T05:08:32.551Z,95.08
2022-08-16T05:11:01.436Z,94.09
2022-08-16T05:13:39.999Z,92.83
2022-08-16T05:16:20.116Z,90.03
2022-08-16T05:18:49.071Z,89.54
2022-08-16T05:21:16.067Z,88.12
2022-08-16T05:23:51.628Z,85.96
2022-08-16T05:26:24.685Z,86.02
2022-08-16T05:28:56.043Z,83.57
2022-08-16T05:31:29.919Z,82.19
2022-08-16T05:34:01.115Z,82.84
2022-08-16T05:36:34.139Z,81.64
2022-08-16T05:39:08.820Z,80.49
2022-08-16T05:41:44.788Z,79.92
2022-08-16T05:44:22.981Z,79.42
2022-08-16T05:46:54.720Z,78.63
2022-08-16T05:49:23.265Z,76.60
2022-08-16T05:51:50.394Z,75.84
2022-08-16T05:54:25.115Z,76.13
2022-08-16T05:56:53.573Z,75.69
2022-08-16T05:59:22.163Z,73.30
2022-08-16T06:01:50.768Z,73.10
2022-08-16T06:04:35.219Z,73.14
2022-08-16T06:07:08.260Z,73.54
2022-08-16T06:09:42.832Z,78.07
2022-08-16T06:12:27.120Z,78.49
2022-08-16T06:15:07.854Z,78.00
2022-08-16T06:17:42.738Z,77.40
2022-08-16T06:20:24.041Z,75.29
2022-08-16T06:22:58.456Z,72.61
2022-08-16T06:25:35.890Z,70.38
2022-08-16T06:28:08.428Z,70.06
2022-08-16T06:30:43.179Z,66.46
2022-08-16T06:33:12.423Z,65.61
2022-08-16T06:35:41.727Z,64.49
2022-08-16T06:38:32.428Z,63.62
2022-08-16T06:40:55.633Z,61.75
2022-08-16T06:43:27.654Z,61.47
2022-08-16T06:45:55.673Z,61.75
2022-08-16T06:48:32.497Z,61.25
2022-08-16T06:51:01.761Z,60.09
2022-08-16T06:53:29.745Z,58.91
2022-08-16T06:55:59.047Z,59.13
2022-08-16T06:58:31.724Z,57.13
2022-08-16T07:01:00.470Z,58.23
2022-08-16T07:03:32.200Z,57.42
2022-08-16T07:05:59.772Z,57.06
2022-08-16T07:08:28.087Z,55.54
2022-08-16T07:10:56.024Z,54.35
2022-08-16T07:13:51.311Z,54.52
2022-08-16T07:16:15.520Z,53.36
2022-08-16T07:19:01.627Z,52.58
2022-08-16T07:21:46.172Z,52.85
2022-08-16T07:24:30.508Z,51.01
2022-08-16T07:27:00.676Z,50.96
2022-08-16T07:29:31.802Z,49.26
2022-08-16T07:32:00.791Z,48.96
2022-08-16T07:34:35.194Z,49.27
2022-08-16T07:37:07.209Z,47.50
2022-08-16T07:39:34.295Z,47.95
2022-08-16T07:42:09.891Z,47.20
2022-08-16T07:44:49.100Z,47.71
2022-08-16T07:47:17.508Z,47.61
2022-08-16T07:49:52.804Z,46.93
2022-08-16T07:52:20.821Z,44.29
2022-08-16T07:54:48.986Z,44.47
2022-08-16T07:57:19.858Z,43.87
2022-08-16T07:59:51.057Z,43.24
2022-08-16T08:02:20.253Z,43.97
2022-08-16T08:04:49.000Z,43.14
2022-08-16T08:07:16.506Z,43.75
2022-08-16T08:09:44.149Z,44.32
2022-08-16T08:12:32.286Z,45.33
2022-08-16T08:14:59.475Z,44.02
2022-08-16T08:17:42.496Z,43.76
2022-08-16T08:20:26.379Z,43.87
2022-08-16T08:23:01.088Z,42.76
2022-08-16T08:25:53.435Z,42.26
2022-08-16T08:28:17.781Z,40.35
2022-08-16T08:30:51.833Z,40.22
2022-08-16T08:33:28.725Z,40.27
2022-08-16T08:35:57.264Z,38.25
2022-08-16T08:38:44.178Z,39.87
2022-08-16T08:41:18.352Z,39.31
2022-08-16T08:43:46.588Z,38.66
2022-08-16T08:46:18.404Z,38.93
2022-08-16T08:49:00.037Z,38.46
2022-08-16T08:51:31.891Z,37.80
2022-08-16T08:54:06.744Z,37.32
2022-08-16T08:56:37.288Z,37.55
2022-08-16T08:59:13.564Z,37.40
2022-08-16T09:01:57.263Z,38.63
2022-08-16T09:04:27.149Z,39.39
2022-08-16T09:06:54.548Z,38.55
2022-08-16T09:09:23.056Z,38.58
2022-08-16T09:12:04.033Z,37.55
2022-08-16T09:14:35.623Z,36.69
2022-08-16T09:17:11.805Z,37.89
2022-08-16T09:19:41.365Z,37.65
2022-08-16T09:22:20.963Z,37.35
2022-08-16T09:24:52.573Z,38.43
2022-08-16T09:27:21.776Z,37.62
2022-08-16T09:30:00.126Z,37.11
2022-08-16T09:32:30.957Z,37.76
2022-08-16T09:34:59.709Z,38.15
2022-08-16T09:37:29.599Z,37.79
2022-08-16T09:39:59.763Z,37.33
2022-08-16T09:42:29.075Z,37.18
2022-08-16T09:45:11.273Z,38.34
2022-08-16T09:47:57.224Z,38.98
2022-08-16T09:50:36.831Z,39.35
2022-08-16T09:53:15.278Z,40.28
2022-08-16T09:55:45.980Z,40.91
2022-08-16T09:58:41.399Z,41.35
2022-08-16T10:01:02.943Z,42.38
2022-08-16T10:03:30.482Z,43.21
2022-08-16T10:05:58.083Z,41.89
2022-08-16T10:08:26.000Z,42.40
2022-08-16T10:11:29.377Z,41.58
2022-08-16T10:13:56.062Z,41.05
2022-08-16T10:16:22.786Z,41.40
2022-08-16T10:19:01.827Z,40.20
2022-08-16T10:21:33.604Z,38.75
2022-08-16T10:24:01.465Z,38.84
2022-08-16T10:27:18.204Z,39.46
2022-08-16T10:29:20.184Z,37.84
2022-08-16T10:31:53.855Z,37.35
2022-08-16T10:34:32.058Z,37.62
2022-08-16T10:37:02.034Z,37.21
2022-08-16T10:39:40.839Z,37.05
2022-08-16T10:42:10.258Z,37.23
2022-08-16T10:44:40.464Z,36.52
2022-08-16T10:47:10.079Z,36.28
2022-08-16T10:49:39.164Z,35.96
2022-08-16T10:52:19.029Z,34.78
2022-08-16T10:57:34.778Z,35.51
2022-08-16T11:00:06.051Z,36.07
2022-08-16T11:02:58.615Z,35.18
2022-08-16T11:05:28.674Z,35.44
2022-08-16T11:07:55.589Z,35.11
2022-08-16T11:19:03.962Z,33.47
2022-08-16T11:21:34.041Z,34.67
2022-08-16T11:24:01.818Z,33.91
2022-08-16T11:26:30.713Z,33.32
2022-08-16T11:29:14.456Z,33.31
2022-08-16T11:31:45.685Z,34.16
2022-08-16T11:34:21.229Z,34.14
2022-08-16T11:36:53.974Z,33.35
2022-08-16T11:39:29.455Z,32.83
2022-08-16T11:41:57.228Z,32.76
2022-08-16T11:44:56.211Z,32.61
2022-08-16T11:47:11.795Z,32.76
2022-08-16T11:49:38.421Z,31.99
2022-08-16T11:52:05.324Z,31.17
2022-08-16T11:54:33.216Z,31.08
2022-08-16T11:57:04.544Z,31.73
2022-08-16T11:59:39.953Z,31.56
2022-08-16T12:02:32.595Z,31.41
2022-08-16T12:04:54.723Z,32.05
2022-08-16T12:07:23.505Z,32.28
2022-08-16T12:09:53.290Z,32.69
2022-08-16T12:12:21.019Z,33.44
2022-08-16T12:14:55.857Z,33.01
2022-08-16T12:17:32.069Z,32.75
2022-08-16T12:20:00.842Z,33.00
2022-08-16T12:22:29.167Z,33.15
2022-08-16T12:24:55.846Z,31.98
2022-08-16T12:27:24.751Z,31.65
2022-08-16T12:29:58.421Z,31.84
2022-08-16T12:32:37.811Z,31.78
2022-08-16T12:35:17.274Z,32.22
2022-08-16T12:37:47.318Z,31.86
2022-08-16T12:40:25.045Z,31.52
2022-08-16T12:42:58.841Z,31.32
2022-08-16T12:45:28.489Z,30.90
2022-08-16T12:48:33.728Z,31.10
2022-08-16T12:51:01.323Z,29.80
2022-08-16T12:53:33.510Z,30.66
2022-08-16T12:56:01.033Z,30.76
2022-08-16T12:58:50.603Z,30.24
2022-08-16T13:01:28.741Z,30.10
2022-08-16T13:04:11.447Z,30.00
2022-08-16T13:06:42.258Z,30.27
2022-08-16T13:09:26.611Z,32.17
2022-08-16T13:12:07.305Z,32.61
2022-08-16T13:14:41.224Z,30.71
2022-08-16T13:17:17.029Z,30.77
2022-08-16T13:22:34.400Z,28.28
2022-08-16T13:25:01.124Z,27.84
2022-08-16T13:28:02.747Z,27.10
2022-08-16T13:30:35.440Z,28.48
2022-08-16T13:33:11.526Z,27.98
2022-08-16T13:35:44.600Z,26.13
2022-08-16T13:38:24.597Z,25.93
2022-08-16T13:40:57.213Z,25.41
2022-08-16T13:43:28.884Z,25.36
2022-08-16T13:46:04.221Z,23.94
2022-08-16T13:48:42.898Z,26.33
2022-08-16T13:51:18.033Z,26.89
2022-08-16T13:53:49.631Z,28.32
2022-08-16T13:56:25.233Z,28.77
2022-08-16T13:58:54.116Z,28.41
2022-08-16T14:01:22.364Z,28.31
2022-08-16T14:03:54.532Z,30.57
2022-08-16T14:06:22.087Z,31.67
2022-08-16T14:08:50.243Z,32.32
2022-08-16T14:11:26.212Z,33.58
2022-08-16T14:13:53.420Z,33.94
2022-08-16T14:16:24.239Z,33.94
2022-08-16T14:19:00.196Z,34.91
2022-08-16T14:21:34.828Z,35.06
2022-08-16T14:24:12.895Z,35.18
2022-08-16T14:26:52.813Z,34.19
2022-08-16T14:29:20.006Z,33.92
2022-08-16T14:31:46.792Z,34.13
2022-08-16T14:34:20.868Z,33.43
2022-08-16T14:36:52.097Z,32.59
2022-08-16T14:39:21.996Z,32.56
2022-08-16T14:41:49.303Z,32.90
2022-08-16T14:44:20.067Z,33.56
2022-08-16T14:46:46.912Z,34.21
2022-08-16T14:49:14.524Z,34.31
2022-08-16T14:51:46.182Z,34.82
2022-08-16T14:54:15.228Z,36.16
2022-08-16T14:56:54.458Z,36.15
2022-08-16T14:59:21.960Z,37.24
2022-08-16T15:01:59.341Z,39.37
2022-08-16T15:04:37.902Z,41.32
2022-08-16T15:07:15.939Z,40.64
2022-08-16T15:10:00.689Z,39.49
2022-08-16T15:12:31.172Z,38.60
2022-08-16T15:15:04.402Z,38.52
2022-08-16T15:17:39.615Z,36.58
2022-08-16T15:20:08.644Z,37.24
2022-08-16T15:22:41.621Z,38.63
2022-08-16T15:25:13.802Z,39.30
2022-08-16T15:27:42.688Z,40.43
2022-08-16T15:30:57.316Z,40.80
2022-08-16T15:33:07.888Z,41.92
2022-08-16T15:35:38.737Z,41.87
2022-08-16T15:38:08.848Z,42.55
2022-08-16T15:40:54.902Z,44.13
2022-08-16T15:43:33.870Z,44.91
2022-08-16T15:46:54.553Z,43.86
2022-08-16T15:49:15.482Z,44.40
2022-08-16T15:51:45.453Z,43.14
2022-08-16T15:54:16.591Z,43.65
2022-08-16T15:57:00.211Z,43.53
2022-08-16T15:59:48.104Z,43.64
2022-08-16T16:02:20.559Z,44.79
2022-08-16T16:04:54.901Z,45.78
2022-08-16T16:07:21.966Z,46.49
2022-08-16T16:09:48.988Z,45.90
2022-08-16T16:12:50.283Z,45.60
2022-08-16T16:15:06.663Z,45.34
2022-08-16T16:17:34.339Z,44.83
2022-08-16T16:20:14.599Z,45.80
2022-08-16T16:22:43.582Z,46.13
2022-08-16T16:25:15.770Z,47.41
2022-08-16T16:27:43.619Z,48.33
2022-08-16T16:30:32.749Z,48.75
2022-08-16T16:32:58.809Z,48.75
2022-08-16T16:35:32.564Z,47.11
2022-08-16T16:37:59.843Z,47.75
2022-08-16T16:40:32.235Z,47.97
2022-08-16T16:43:00.002Z,48.34
2022-08-16T16:45:33.329Z,49.04
2022-08-16T16:48:12.058Z,48.75
2022-08-16T16:50:44.692Z,49.36
2022-08-16T16:53:17.452Z,49.14
2022-08-16T16:55:47.484Z,49.96
2022-08-16T16:58:43.153Z,50.70
2022-08-16T17:01:10.990Z,50.84
2022-08-16T17:03:38.761Z,50.22
2022-08-16T17:06:10.406Z,49.09
2022-08-16T17:08:40.966Z,47.56
2022-08-16T17:11:10.019Z,48.13
2022-08-16T17:13:37.199Z,48.10
2022-08-16T17:16:05.319Z,48.72
2022-08-16T17:19:15.715Z,49.14
2022-08-16T17:21:19.165Z,49.31
2022-08-16T17:23:58.226Z,49.08
2022-08-16T17:26:29.557Z,48.15
2022-08-16T17:28:58.795Z,48.86
2022-08-16T17:31:41.044Z,50.07
2022-08-16T17:34:29.319Z,50.26
2022-08-16T17:36:59.752Z,50.54
2022-08-16T17:39:29.604Z,50.31
2022-08-16T17:41:58.218Z,49.99
2022-08-16T17:44:25.372Z,50.76
2022-08-16T17:46:53.166Z,50.79
2022-08-16T17:49:21.264Z,51.00
2022-08-16T17:51:48.002Z,51.28
2022-08-16T17:54:20.248Z,50.75
2022-08-16T17:57:01.311Z,51.82
2022-08-16T17:59:29.327Z,52.04
2022-08-16T18:01:56.720Z,52.47
2022-08-16T18:04:49.899Z,53.54
2022-08-16T18:07:11.797Z,55.51
2022-08-16T18:09:41.048Z,57.72
2022-08-16T18:12:44.786Z,58.53
2022-08-16T18:15:04.565Z,59.61
2022-08-16T18:17:32.032Z,59.96
2022-08-16T18:19:58.821Z,61.47
2022-08-16T18:22:30.608Z,63.03
2022-08-16T18:24:58.348Z,63.60
2022-08-16T18:27:27.082Z,64.74
2022-08-16T18:29:54.873Z,64.79
2022-08-16T18:32:24.978Z,64.95
2022-08-16T18:34:53.846Z,66.67
2022-08-16T18:37:21.837Z,66.17
2022-08-16T18:39:48.554Z,65.68
2022-08-16T18:42:15.677Z,66.42
2022-08-16T18:44:43.830Z,66.09
2022-08-16T18:47:10.598Z,66.56
2022-08-16T18:49:37.302Z,66.97
2022-08-16T18:52:04.291Z,66.82
2022-08-16T18:54:32.902Z,65.01
2022-08-16T18:57:00.788Z,66.22
2022-08-16T18:59:30.976Z,66.39
2022-08-16T19:02:00.282Z,65.99
2022-08-16T19:04:56.411Z,66.23
2022-08-16T19:07:29.605Z,66.12
2022-08-16T19:09:58.195Z,67.86
2022-08-16T19:12:38.417Z,68.25
2022-08-16T19:15:18.108Z,68.49
2022-08-16T19:17:45.585Z,69.00
2022-08-16T19:20:17.376Z,69.10
2022-08-16T19:23:04.500Z,69.38
2022-08-16T19:25:47.514Z,69.52
2022-08-16T19:28:49.708Z,72.35
2022-08-16T19:31:16.481Z,72.52
2022-08-16T19:33:54.145Z,73.23
2022-08-16T19:36:30.407Z,73.51
2022-08-16T19:39:05.149Z,73.35
2022-08-16T19:41:33.071Z,72.29
2022-08-16T19:43:59.726Z,72.83
2022-08-16T19:46:26.401Z,71.93
2022-08-16T19:48:53.090Z,72.41
2022-08-16T19:51:19.763Z,71.71
2022-08-16T19:53:46.381Z,72.33
2022-08-16T19:56:13.064Z,71.66
2022-08-16T19:58:50.949Z,71.43
2022-08-16T20:01:26.322Z,72.47
2022-08-16T20:03:52.955Z,72.39
2022-08-16T20:06:37.607Z,71.35
2022-08-16T20:09:06.423Z,72.13
2022-08-16T20:11:34.688Z,71.25
2022-08-16T20:14:01.762Z,74.25
2022-08-16T20:16:28.427Z,75.51
2022-08-16T20:18:55.083Z,76.37
2022-08-16T20:21:21.775Z,77.37
2022-08-16T20:23:48.383Z,77.99
2022-08-16T20:26:15.441Z,78.21
2022-08-16T20:28:52.991Z,78.25
2022-08-16T20:31:25.715Z,78.28
2022-08-16T20:33:53.337Z,79.46
2022-08-16T20:36:20.307Z,79.58
2022-08-16T20:38:47.730Z,77.41
2022-08-16T20:41:15.704Z,75.85
2022-08-16T20:43:42.420Z,75.80
2022-08-16T20:46:09.597Z,75.58
2022-08-16T20:48:36.270Z,76.05
2022-08-16T20:51:03.343Z,76.50
2022-08-16T20:53:29.941Z,76.49
2022-08-16T20:55:56.781Z,75.68
2022-08-16T20:58:23.403Z,75.43
2022-08-16T21:00:50.226Z,76.37
2022-08-16T21:03:16.987Z,76.78
2022-08-16T21:05:46.702Z,76.29
2022-08-16T21:08:44.079Z,77.44
2022-08-16T21:11:04.667Z,76.60
2022-08-16T21:13:32.823Z,76.79
2022-08-16T21:16:01.092Z,77.08
2022-08-16T21:18:28.049Z,77.47
2022-08-16T21:20:55.361Z,76.93
2022-08-16T21:23:22.277Z,77.46
2022-08-16T21:25:58.242Z,78.37
2022-08-16T21:28:41.839Z,80.32
2022-08-16T21:31:14.308Z,80.57
2022-08-16T21:33:41.040Z,79.63
2022-08-16T21:36:08.167Z,80.42
2022-08-16T21:38:34.960Z,80.02
2022-08-16T21:41:05.663Z,79.60
2022-08-16T21:43:33.536Z,79.99
2022-08-16T21:46:01.895Z,80.11
2022-08-16T21:48:34.779Z,80.38
2022-08-16T21:51:06.504Z,80.35
2022-08-16T21:53:33.386Z,80.70
2022-08-16T21:56:01.271Z,80.27
2022-08-16T21:58:29.989Z,80.36
2022-08-16T22:00:56.925Z,80.46
2022-08-16T22:03:24.373Z,81.01
2022-08-16T22:06:11.699Z,81.82
2022-08-16T22:08:49.782Z,81.06
2022-08-16T22:11:24.273Z,81.59
2022-08-16T22:13:58.122Z,83.46
2022-08-16T22:16:32.237Z,84.58
2022-08-16T22:19:00.157Z,86.75
2022-08-16T22:21:27.067Z,87.78
2022-08-16T22:23:56.764Z,87.87
2022-08-16T22:26:32.597Z,89.16
2022-08-16T22:29:11.204Z,87.00
2022-08-16T22:31:39.929Z,85.36
2022-08-16T22:34:07.970Z,85.12
2022-08-16T22:36:35.411Z,84.34
2022-08-16T22:39:06.913Z,82.61
2022-08-16T22:41:34.940Z,83.25
2022-08-16T22:44:03.433Z,83.32
2022-08-16T22:46:31.025Z,83.34
2022-08-16T22:48:58.245Z,82.89
2022-08-16T22:51:27.541Z,81.18
2022-08-16T22:53:55.340Z,82.59
2022-08-16T22:56:23.303Z,83.05
2022-08-16T22:58:50.084Z,82.72
2022-08-16T23:01:18.516Z,82.02
2022-08-16T23:03:45.254Z,82.87
2022-08-16T23:06:12.577Z,81.68
2022-08-16T23:08:41.400Z,81.44
2022-08-16T23:11:10.569Z,81.92
2022-08-16T23:13:37.820Z,82.11
2022-08-16T23:16:16.706Z,86.91
2022-08-16T23:18:43.341Z,86.24
2022-08-16T23:21:10.848Z,86.19
2022-08-16T23:23:38.767Z,85.70
2022-08-16T23:26:46.135Z,84.98
2022-08-16T23:28:53.432Z,83.65
2022-08-16T23:31:20.260Z,82.95
2022-08-16T23:33:46.991Z,83.53
2022-08-16T23:36:13.727Z,82.78
2022-08-16T23:38:41.317Z,82.92
2022-08-16T23:41:12.243Z,83.19
2022-08-16T23:43:43.535Z,83.41
2022-08-16T23:46:15.145Z,82.33
2022-08-16T23:49:58.644Z,81.46
2022-08-16T23:51:29.112Z,82.87
2022-08-16T23:53:55.943Z,82.81
2022-08-16T23:56:22.698Z,83.51
2022-08-16T23:58:52.585Z,83.21
